sensor_id;sensor_type;location;lat;lon;timestamp;P1;P2;P0
35654;PMS1003;21773;50.010;19.972;2023-01-28T00:01:47;33.80;30.00;23.00
35654;PMS1003;21773;50.010;19.972;2023-01-28T00:04:50;32.50;29.25;23.00
35654;PMS1003;21773;50.010;19.972;2023-01-28T00:07:55;34.00;31.00;24.00
35654;PMS1003;21773;50.010;19.972;2023-01-28T00:10:59;32.20;28.20;22.20
35654;PMS1003;21773;50.010;19.972;2023-01-28T00:14:03;42.00;32.60;26.00
35654;PMS1003;21773;50.010;19.972;2023-01-28T00:17:06;32.25;28.25;22.00
35654;PMS1003;21773;50.010;19.972;2023-01-28T00:20:10;34.00;31.00;24.00
35654;PMS1003;21773;50.010;19.972;2023-01-28T00:23:15;31.00;28.00;22.00
35654;PMS1003;21773;50.010;19.972;2023-01-28T00:26:18;37.50;32.25;24.75
35654;PMS1003;21773;50.010;19.972;2023-01-28T00:29:22;35.60;32.00;24.00
35654;PMS1003;21773;50.010;19.972;2023-01-28T00:32:25;29.00;26.00;20.00
35654;PMS1003;21773;50.010;19.972;2023-01-28T00:35:29;31.00;29.50;22.00
35654;PMS1003;21773;50.010;19.972;2023-01-28T00:38:34;34.00;28.00;22.00
35654;PMS1003;21773;50.010;19.972;2023-01-28T00:41:37;30.00;27.60;21.60
35654;PMS1003;21773;50.010;19.972;2023-01-28T00:44:40;30.00;26.00;20.60
35654;PMS1003;21773;50.010;19.972;2023-01-28T00:47:44;32.00;26.75;20.75
35654;PMS1003;21773;50.010;19.972;2023-01-28T00:50:49;35.00;32.00;24.75
35654;PMS1003;21773;50.010;19.972;2023-01-28T00:53:55;32.40;29.00;22.40
35654;PMS1003;21773;50.010;19.972;2023-01-28T00:56:58;37.40;31.40;23.00
35654;PMS1003;21773;50.010;19.972;2023-01-28T01:00:01;36.50;32.75;25.00
35654;PMS1003;21773;50.010;19.972;2023-01-28T01:03:05;33.40;28.60;22.00
35654;PMS1003;21773;50.010;19.972;2023-01-28T01:06:08;30.60;27.40;21.60
35654;PMS1003;21773;50.010;19.972;2023-01-28T01:09:15;31.00;28.00;22.00
35654;PMS1003;21773;50.010;19.972;2023-01-28T01:12:18;36.20;30.40;23.40
35654;PMS1003;21773;50.010;19.972;2023-01-28T01:15:21;32.20;25.80;20.00
35654;PMS1003;21773;50.010;19.972;2023-01-28T01:18:25;36.00;32.00;23.50
35654;PMS1003;21773;50.010;19.972;2023-01-28T01:21:29;30.00;28.40;22.40
35654;PMS1003;21773;50.010;19.972;2023-01-28T01:24:34;32.40;29.20;22.60
35654;PMS1003;21773;50.010;19.972;2023-01-28T01:27:37;32.40;29.40;23.00
35654;PMS1003;21773;50.010;19.972;2023-01-28T01:30:41;33.40;30.00;22.00
35654;PMS1003;21773;50.010;19.972;2023-01-28T01:33:44;33.00;28.40;21.40
35654;PMS1003;21773;50.010;19.972;2023-01-28T01:36:49;25.40;23.80;20.00
35654;PMS1003;21773;50.010;19.972;2023-01-28T01:39:53;29.80;26.20;20.20
35654;PMS1003;21773;50.010;19.972;2023-01-28T01:42:57;27.00;24.00;20.00
35654;PMS1003;21773;50.010;19.972;2023-01-28T01:46:01;30.80;27.00;21.80
35654;PMS1003;21773;50.010;19.972;2023-01-28T01:49:11;31.20;27.80;20.80
35654;PMS1003;21773;50.010;19.972;2023-01-28T01:52:22;32.67;29.00;22.33
35654;PMS1003;21773;50.010;19.972;2023-01-28T01:55:30;33.00;30.00;23.40
35654;PMS1003;21773;50.010;19.972;2023-01-28T01:58:39;30.00;29.40;23.00
35654;PMS1003;21773;50.010;19.972;2023-01-28T02:01:45;31.60;27.60;21.60
35654;PMS1003;21773;50.010;19.972;2023-01-28T02:04:50;27.20;24.20;19.20
35654;PMS1003;21773;50.010;19.972;2023-01-28T02:07:53;35.00;29.00;21.60
35654;PMS1003;21773;50.010;19.972;2023-01-28T02:11:22;33.80;28.40;23.00
35654;PMS1003;21773;50.010;19.972;2023-01-28T02:14:30;37.00;32.00;24.50
35654;PMS1003;21773;50.010;19.972;2023-01-28T02:17:36;34.00;31.00;23.00
35654;PMS1003;21773;50.010;19.972;2023-01-28T02:20:44;30.75;28.00;22.00
35654;PMS1003;21773;50.010;19.972;2023-01-28T02:24:10;28.00;25.00;20.00
35654;PMS1003;21773;50.010;19.972;2023-01-28T02:27:29;33.00;29.00;22.00
35654;PMS1003;21773;50.010;19.972;2023-01-28T02:30:41;31.50;28.50;22.00
35654;PMS1003;21773;50.010;19.972;2023-01-28T02:33:50;29.40;27.00;22.00
35654;PMS1003;21773;50.010;19.972;2023-01-28T02:36:58;35.40;31.20;23.20
35654;PMS1003;21773;50.010;19.972;2023-01-28T02:40:07;41.20;34.20;26.80
35654;PMS1003;21773;50.010;19.972;2023-01-28T02:43:15;34.00;29.40;22.00
35654;PMS1003;21773;50.010;19.972;2023-01-28T02:46:21;32.40;30.00;23.00
35654;PMS1003;21773;50.010;19.972;2023-01-28T02:49:54;35.25;32.00;24.00
35654;PMS1003;21773;50.010;19.972;2023-01-28T02:53:06;33.60;30.60;23.60
35654;PMS1003;21773;50.010;19.972;2023-01-28T02:56:40;33.40;26.40;22.00
35654;PMS1003;21773;50.010;19.972;2023-01-28T02:59:50;36.40;31.40;24.00
35654;PMS1003;21773;50.010;19.972;2023-01-28T03:03:03;30.00;28.40;22.00
35654;PMS1003;21773;50.010;19.972;2023-01-28T03:06:14;34.20;30.00;22.60
35654;PMS1003;21773;50.010;19.972;2023-01-28T03:09:22;31.80;28.00;22.00
35654;PMS1003;21773;50.010;19.972;2023-01-28T03:12:28;31.60;29.20;22.00
35654;PMS1003;21773;50.010;19.972;2023-01-28T03:15:51;22.80;21.60;17.60
35654;PMS1003;21773;50.010;19.972;2023-01-28T03:19:13;30.00;27.00;22.00
35654;PMS1003;21773;50.010;19.972;2023-01-28T03:22:37;29.00;27.00;21.00
35654;PMS1003;21773;50.010;19.972;2023-01-28T03:26:01;27.40;24.40;20.00
35654;PMS1003;21773;50.010;19.972;2023-01-28T03:29:27;30.00;27.00;22.00
35654;PMS1003;21773;50.010;19.972;2023-01-28T03:32:52;26.00;25.00;20.00
35654;PMS1003;21773;50.010;19.972;2023-01-28T03:36:15;38.00;32.40;24.80
35654;PMS1003;21773;50.010;19.972;2023-01-28T03:39:36;32.40;27.80;21.40
35654;PMS1003;21773;50.010;19.972;2023-01-28T03:42:42;30.00;27.00;21.00
35654;PMS1003;21773;50.010;19.972;2023-01-28T03:46:06;27.60;25.40;20.20
35654;PMS1003;21773;50.010;19.972;2023-01-28T03:49:10;29.00;26.60;21.60
35654;PMS1003;21773;50.010;19.972;2023-01-28T03:52:15;30.60;28.40;22.00
35654;PMS1003;21773;50.010;19.972;2023-01-28T03:55:20;30.50;28.75;23.25
35654;PMS1003;21773;50.010;19.972;2023-01-28T03:58:27;28.60;26.00;21.60
35654;PMS1003;21773;50.010;19.972;2023-01-28T04:01:51;29.00;26.00;21.00
35654;PMS1003;21773;50.010;19.972;2023-01-28T04:04:56;29.50;28.50;22.00
35654;PMS1003;21773;50.010;19.972;2023-01-28T04:08:01;28.00;25.00;21.60
35654;PMS1003;21773;50.010;19.972;2023-01-28T04:11:23;29.20;25.60;20.00
35654;PMS1003;21773;50.010;19.972;2023-01-28T04:14:28;32.00;29.50;23.50
35654;PMS1003;21773;50.010;19.972;2023-01-28T04:17:45;29.60;27.40;21.40
35654;PMS1003;21773;50.010;19.972;2023-01-28T04:20:57;30.20;26.00;21.00
35654;PMS1003;21773;50.010;19.972;2023-01-28T04:24:02;28.40;27.00;20.00
35654;PMS1003;21773;50.010;19.972;2023-01-28T04:27:06;28.00;26.80;22.00
35654;PMS1003;21773;50.010;19.972;2023-01-28T04:30:10;29.60;27.00;21.60
35654;PMS1003;21773;50.010;19.972;2023-01-28T04:33:19;29.60;28.60;22.00
35654;PMS1003;21773;50.010;19.972;2023-01-28T04:36:56;33.20;30.80;23.40
35654;PMS1003;21773;50.010;19.972;2023-01-28T04:40:39;30.20;26.80;20.60
35654;PMS1003;21773;50.010;19.972;2023-01-28T04:43:45;36.25;29.00;22.00
35654;PMS1003;21773;50.010;19.972;2023-01-28T04:47:22;30.80;26.80;20.80
35654;PMS1003;21773;50.010;19.972;2023-01-28T04:50:37;25.40;22.00;18.60
35654;PMS1003;21773;50.010;19.972;2023-01-28T04:53:48;36.60;32.80;25.80
35654;PMS1003;21773;50.010;19.972;2023-01-28T04:57:01;25.00;22.00;18.67
35654;PMS1003;21773;50.010;19.972;2023-01-28T05:00:06;25.00;23.40;20.00
35654;PMS1003;21773;50.010;19.972;2023-01-28T05:03:10;27.25;23.50;19.25
35654;PMS1003;21773;50.010;19.972;2023-01-28T05:06:15;29.00;26.67;21.67
35654;PMS1003;21773;50.010;19.972;2023-01-28T05:09:20;30.00;26.00;21.00
35654;PMS1003;21773;50.010;19.972;2023-01-28T05:12:26;27.20;26.20;21.20
35654;PMS1003;21773;50.010;19.972;2023-01-28T05:15:31;31.50;25.75;21.50
35654;PMS1003;21773;50.010;19.972;2023-01-28T05:18:34;25.75;23.75;20.00
35654;PMS1003;21773;50.010;19.972;2023-01-28T05:21:42;28.00;25.25;21.25
35654;PMS1003;21773;50.010;19.972;2023-01-28T05:24:57;23.75;22.75;18.75
35654;PMS1003;21773;50.010;19.972;2023-01-28T05:28:02;23.40;22.20;19.00
35654;PMS1003;21773;50.010;19.972;2023-01-28T05:31:05;27.40;24.00;20.00
35654;PMS1003;21773;50.010;19.972;2023-01-28T05:34:09;22.00;19.75;17.00
35654;PMS1003;21773;50.010;19.972;2023-01-28T05:37:13;26.40;22.60;18.60
35654;PMS1003;21773;50.010;19.972;2023-01-28T05:40:18;27.60;23.20;19.80
35654;PMS1003;21773;50.010;19.972;2023-01-28T05:43:23;25.00;22.00;19.00
35654;PMS1003;21773;50.010;19.972;2023-01-28T05:46:46;28.80;24.60;21.00
35654;PMS1003;21773;50.010;19.972;2023-01-28T05:50:10;23.60;22.60;19.00
35654;PMS1003;21773;50.010;19.972;2023-01-28T05:53:38;23.00;22.00;19.00
35654;PMS1003;21773;50.010;19.972;2023-01-28T05:56:42;26.00;23.00;19.40
35654;PMS1003;21773;50.010;19.972;2023-01-28T05:59:47;28.00;21.80;18.60
35654;PMS1003;21773;50.010;19.972;2023-01-28T06:02:50;21.00;19.00;16.00
35654;PMS1003;21773;50.010;19.972;2023-01-28T06:05:54;25.20;22.60;19.60
35654;PMS1003;21773;50.010;19.972;2023-01-28T06:08:58;21.00;19.00;15.00
35654;PMS1003;21773;50.010;19.972;2023-01-28T06:12:04;25.40;24.00;19.40
35654;PMS1003;21773;50.010;19.972;2023-01-28T06:15:20;27.00;24.00;20.00
35654;PMS1003;21773;50.010;19.972;2023-01-28T06:18:50;27.00;23.75;20.00
35654;PMS1003;21773;50.010;19.972;2023-01-28T06:21:53;25.75;23.75;20.50
35654;PMS1003;21773;50.010;19.972;2023-01-28T06:24:57;26.50;24.50;20.25
35654;PMS1003;21773;50.010;19.972;2023-01-28T06:28:00;28.00;28.00;22.00
35654;PMS1003;21773;50.010;19.972;2023-01-28T06:31:05;28.00;26.60;22.60
35654;PMS1003;21773;50.010;19.972;2023-01-28T06:34:09;26.20;22.80;19.00
35654;PMS1003;21773;50.010;19.972;2023-01-28T06:37:12;29.00;27.50;22.00
35654;PMS1003;21773;50.010;19.972;2023-01-28T06:40:16;29.50;27.50;22.50
35654;PMS1003;21773;50.010;19.972;2023-01-28T06:43:19;30.40;28.40;23.00
35654;PMS1003;21773;50.010;19.972;2023-01-28T06:46:29;28.00;26.00;22.00
35654;PMS1003;21773;50.010;19.972;2023-01-28T06:49:33;28.40;27.00;22.00
35654;PMS1003;21773;50.010;19.972;2023-01-28T06:52:36;25.00;22.80;18.80
35654;PMS1003;21773;50.010;19.972;2023-01-28T06:55:39;23.75;22.25;19.00
35654;PMS1003;21773;50.010;19.972;2023-01-28T06:58:43;29.60;27.60;22.40
35654;PMS1003;21773;50.010;19.972;2023-01-28T07:01:48;24.00;23.40;18.60
35654;PMS1003;21773;50.010;19.972;2023-01-28T07:04:51;28.50;23.50;20.00
35654;PMS1003;21773;50.010;19.972;2023-01-28T07:07:54;25.00;23.00;20.00
35654;PMS1003;21773;50.010;19.972;2023-01-28T07:10:57;21.00;20.60;18.00
35654;PMS1003;21773;50.010;19.972;2023-01-28T07:14:01;23.20;20.60;18.00
35654;PMS1003;21773;50.010;19.972;2023-01-28T07:17:06;23.00;21.75;19.75
35654;PMS1003;21773;50.010;19.972;2023-01-28T07:20:11;19.60;19.60;16.00
35654;PMS1003;21773;50.010;19.972;2023-01-28T07:23:16;29.00;26.00;21.60
35654;PMS1003;21773;50.010;19.972;2023-01-28T07:26:20;25.60;22.80;19.40
35654;PMS1003;21773;50.010;19.972;2023-01-28T07:29:24;25.75;24.25;20.00
35654;PMS1003;21773;50.010;19.972;2023-01-28T07:32:29;20.00;17.25;15.25
35654;PMS1003;21773;50.010;19.972;2023-01-28T07:35:32;17.75;16.75;14.75
35654;PMS1003;21773;50.010;19.972;2023-01-28T07:38:36;20.50;18.25;15.75
35654;PMS1003;21773;50.010;19.972;2023-01-28T07:41:40;20.00;18.60;16.00
35654;PMS1003;21773;50.010;19.972;2023-01-28T07:44:59;20.20;19.60;17.60
35654;PMS1003;21773;50.010;19.972;2023-01-28T07:48:05;20.40;19.00;17.00
35654;PMS1003;21773;50.010;19.972;2023-01-28T07:51:09;21.00;19.80;17.00
35654;PMS1003;21773;50.010;19.972;2023-01-28T07:54:12;22.60;19.20;17.60
35654;PMS1003;21773;50.010;19.972;2023-01-28T07:57:16;21.00;19.00;16.00
35654;PMS1003;21773;50.010;19.972;2023-01-28T08:00:24;21.25;19.25;16.00
35654;PMS1003;21773;50.010;19.972;2023-01-28T08:03:30;29.50;28.25;22.75
35654;PMS1003;21773;50.010;19.972;2023-01-28T08:06:33;23.00;19.00;16.40
35654;PMS1003;21773;50.010;19.972;2023-01-28T08:09:38;18.00;17.50;14.50
35654;PMS1003;21773;50.010;19.972;2023-01-28T08:12:49;23.00;21.00;17.40
35654;PMS1003;21773;50.010;19.972;2023-01-28T08:15:54;22.00;19.00;16.80
35654;PMS1003;21773;50.010;19.972;2023-01-28T08:18:59;23.00;20.00;18.00
35654;PMS1003;21773;50.010;19.972;2023-01-28T08:22:03;22.00;19.00;17.00
35654;PMS1003;21773;50.010;19.972;2023-01-28T08:25:06;16.40;16.00;14.40
35654;PMS1003;21773;50.010;19.972;2023-01-28T08:28:10;22.25;20.25;17.50
35654;PMS1003;21773;50.010;19.972;2023-01-28T08:31:14;26.00;23.00;20.60
35654;PMS1003;21773;50.010;19.972;2023-01-28T08:34:19;17.60;16.60;15.00
35654;PMS1003;21773;50.010;19.972;2023-01-28T08:37:22;17.40;16.40;14.40
35654;PMS1003;21773;50.010;19.972;2023-01-28T08:40:26;19.40;17.40;15.40
35654;PMS1003;21773;50.010;19.972;2023-01-28T08:43:29;20.75;20.00;17.75
35654;PMS1003;21773;50.010;19.972;2023-01-28T08:46:33;18.00;16.80;15.00
35654;PMS1003;21773;50.010;19.972;2023-01-28T08:49:37;21.00;19.75;17.75
35654;PMS1003;21773;50.010;19.972;2023-01-28T08:52:41;19.00;17.00;14.80
35654;PMS1003;21773;50.010;19.972;2023-01-28T08:55:45;19.00;19.00;17.60
35654;PMS1003;21773;50.010;19.972;2023-01-28T08:58:49;20.25;18.25;16.25
35654;PMS1003;21773;50.010;19.972;2023-01-28T09:01:52;17.80;16.00;14.00
35654;PMS1003;21773;50.010;19.972;2023-01-28T09:04:58;19.40;18.00;16.00
35654;PMS1003;21773;50.010;19.972;2023-01-28T09:08:02;20.00;18.50;16.50
35654;PMS1003;21773;50.010;19.972;2023-01-28T09:11:06;17.00;16.80;14.80
35654;PMS1003;21773;50.010;19.972;2023-01-28T09:14:10;21.50;20.50;18.50
35654;PMS1003;21773;50.010;19.972;2023-01-28T09:17:13;22.50;20.00;18.00
35654;PMS1003;21773;50.010;19.972;2023-01-28T09:20:18;19.75;18.00;16.00
35654;PMS1003;21773;50.010;19.972;2023-01-28T09:23:22;19.00;17.00;15.00
35654;PMS1003;21773;50.010;19.972;2023-01-28T09:26:25;20.00;19.50;18.50
35654;PMS1003;21773;50.010;19.972;2023-01-28T09:29:28;17.20;16.20;15.00
35654;PMS1003;21773;50.010;19.972;2023-01-28T09:32:31;19.20;18.60;17.00
35654;PMS1003;21773;50.010;19.972;2023-01-28T09:35:36;20.00;19.00;17.60
35654;PMS1003;21773;50.010;19.972;2023-01-28T09:38:40;17.80;17.00;15.20
35654;PMS1003;21773;50.010;19.972;2023-01-28T09:41:44;19.33;19.00;17.00
35654;PMS1003;21773;50.010;19.972;2023-01-28T09:45:02;18.00;17.00;15.00
35654;PMS1003;21773;50.010;19.972;2023-01-28T09:48:17;22.75;21.00;19.00
35654;PMS1003;21773;50.010;19.972;2023-01-28T09:51:27;21.20;19.20;18.20
35654;PMS1003;21773;50.010;19.972;2023-01-28T09:54:37;22.00;21.00;19.00
35654;PMS1003;21773;50.010;19.972;2023-01-28T09:57:48;19.67;18.67;16.00
35654;PMS1003;21773;50.010;19.972;2023-01-28T10:00:55;20.00;19.00;17.00
35654;PMS1003;21773;50.010;19.972;2023-01-28T10:04:10;22.60;21.00;19.00
35654;PMS1003;21773;50.010;19.972;2023-01-28T10:07:28;18.00;17.00;15.00
35654;PMS1003;21773;50.010;19.972;2023-01-28T10:10:38;19.50;19.00;17.00
35654;PMS1003;21773;50.010;19.972;2023-01-28T10:13:47;23.00;22.00;19.00
35654;PMS1003;21773;50.010;19.972;2023-01-28T10:16:59;26.00;23.00;20.00
35654;PMS1003;21773;50.010;19.972;2023-01-28T10:20:15;25.40;21.40;18.00
35654;PMS1003;21773;50.010;19.972;2023-01-28T10:23:29;23.00;22.00;19.00
35654;PMS1003;21773;50.010;19.972;2023-01-28T10:26:43;26.75;24.00;20.00
35654;PMS1003;21773;50.010;19.972;2023-01-28T10:29:47;25.00;22.00;19.00
35654;PMS1003;21773;50.010;19.972;2023-01-28T10:32:52;23.40;20.80;17.40
35654;PMS1003;21773;50.010;19.972;2023-01-28T10:36:01;24.00;21.50;18.50
35654;PMS1003;21773;50.010;19.972;2023-01-28T10:39:09;29.00;26.40;22.00
35654;PMS1003;21773;50.010;19.972;2023-01-28T10:42:16;27.80;26.80;22.20
35654;PMS1003;21773;50.010;19.972;2023-01-28T10:45:29;27.00;25.00;22.00
35654;PMS1003;21773;50.010;19.972;2023-01-28T10:48:37;24.80;20.80;17.80
35654;PMS1003;21773;50.010;19.972;2023-01-28T10:51:44;21.00;18.60;16.20
35654;PMS1003;21773;50.010;19.972;2023-01-28T10:54:59;23.80;21.80;18.40
35654;PMS1003;21773;50.010;19.972;2023-01-28T10:58:03;26.25;24.00;19.00
35654;PMS1003;21773;50.010;19.972;2023-01-28T11:01:07;21.60;21.00;18.40
35654;PMS1003;21773;50.010;19.972;2023-01-28T11:04:14;23.75;22.00;19.00
35654;PMS1003;21773;50.010;19.972;2023-01-28T11:07:20;23.60;21.60;19.60
35654;PMS1003;21773;50.010;19.972;2023-01-28T11:10:26;22.40;20.40;17.40
35654;PMS1003;21773;50.010;19.972;2023-01-28T11:13:32;22.50;21.00;17.50
35654;PMS1003;21773;50.010;19.972;2023-01-28T11:16:37;17.20;16.60;14.20
35654;PMS1003;21773;50.010;19.972;2023-01-28T11:19:42;21.00;19.80;17.80
35654;PMS1003;21773;50.010;19.972;2023-01-28T11:22:45;23.00;22.40;19.40
35654;PMS1003;21773;50.010;19.972;2023-01-28T11:25:59;29.80;28.20;23.00
35654;PMS1003;21773;50.010;19.972;2023-01-28T11:29:17;23.60;22.00;20.00
35654;PMS1003;21773;50.010;19.972;2023-01-28T11:32:26;22.80;20.80;17.00
35654;PMS1003;21773;50.010;19.972;2023-01-28T11:35:31;26.00;24.40;21.40
35654;PMS1003;21773;50.010;19.972;2023-01-28T11:38:34;24.50;23.00;20.00
35654;PMS1003;21773;50.010;19.972;2023-01-28T11:41:39;21.00;20.00;18.00
35654;PMS1003;21773;50.010;19.972;2023-01-28T11:44:42;21.40;19.40;17.00
35654;PMS1003;21773;50.010;19.972;2023-01-28T11:47:53;23.50;22.50;20.00
35654;PMS1003;21773;50.010;19.972;2023-01-28T11:51:08;19.60;17.60;15.60
35654;PMS1003;21773;50.010;19.972;2023-01-28T11:54:27;23.00;20.20;17.00
35654;PMS1003;21773;50.010;19.972;2023-01-28T11:57:48;24.60;24.00;20.00
35654;PMS1003;21773;50.010;19.972;2023-01-28T12:01:01;24.00;21.40;19.20
35654;PMS1003;21773;50.010;19.972;2023-01-28T12:04:20;21.40;20.60;18.00
35654;PMS1003;21773;50.010;19.972;2023-01-28T12:07:38;19.00;17.00;15.20
35654;PMS1003;21773;50.010;19.972;2023-01-28T12:10:48;23.80;21.20;19.80
35654;PMS1003;21773;50.010;19.972;2023-01-28T12:14:06;23.00;21.00;19.00
35654;PMS1003;21773;50.010;19.972;2023-01-28T12:17:23;26.50;23.50;20.00
35654;PMS1003;21773;50.010;19.972;2023-01-28T12:20:41;26.00;23.50;20.00
35654;PMS1003;21773;50.010;19.972;2023-01-28T12:23:56;27.60;25.00;20.00
35654;PMS1003;21773;50.010;19.972;2023-01-28T12:27:14;25.00;24.00;20.00
35654;PMS1003;21773;50.010;19.972;2023-01-28T12:30:33;30.25;26.00;22.00
35654;PMS1003;21773;50.010;19.972;2023-01-28T12:33:52;28.00;26.20;22.00
35654;PMS1003;21773;50.010;19.972;2023-01-28T12:37:06;27.00;26.00;22.00
35654;PMS1003;21773;50.010;19.972;2023-01-28T12:40:23;26.60;24.60;21.00
35654;PMS1003;21773;50.010;19.972;2023-01-28T12:43:43;24.60;23.00;20.00
35654;PMS1003;21773;50.010;19.972;2023-01-28T12:46:53;25.00;22.00;19.00
35654;PMS1003;21773;50.010;19.972;2023-01-28T12:50:03;27.50;25.50;21.00
35654;PMS1003;21773;50.010;19.972;2023-01-28T12:53:18;26.60;24.60;21.00
35654;PMS1003;21773;50.010;19.972;2023-01-28T12:56:28;27.00;23.00;20.40
35654;PMS1003;21773;50.010;19.972;2023-01-28T12:59:37;27.60;24.40;20.80
35654;PMS1003;21773;50.010;19.972;2023-01-28T13:02:49;29.00;25.00;20.00
35654;PMS1003;21773;50.010;19.972;2023-01-28T13:06:00;27.00;25.50;21.00
35654;PMS1003;21773;50.010;19.972;2023-01-28T13:09:11;29.20;26.60;21.20
35654;PMS1003;21773;50.010;19.972;2023-01-28T13:12:18;29.00;27.00;22.00
35654;PMS1003;21773;50.010;19.972;2023-01-28T13:15:24;28.20;24.20;20.20
35654;PMS1003;21773;50.010;19.972;2023-01-28T13:18:33;25.50;23.50;20.00
35654;PMS1003;21773;50.010;19.972;2023-01-28T13:21:45;29.60;26.60;22.00
35654;PMS1003;21773;50.010;19.972;2023-01-28T13:24:50;31.60;29.00;23.00
35654;PMS1003;21773;50.010;19.972;2023-01-28T13:27:55;26.20;24.60;19.60
35654;PMS1003;21773;50.010;19.972;2023-01-28T13:31:00;27.40;24.00;20.00
35654;PMS1003;21773;50.010;19.972;2023-01-28T13:34:07;28.00;25.00;20.20
35654;PMS1003;21773;50.010;19.972;2023-01-28T13:37:17;25.00;23.50;20.50
35654;PMS1003;21773;50.010;19.972;2023-01-28T13:40:28;28.80;25.60;20.00
35654;PMS1003;21773;50.010;19.972;2023-01-28T13:43:36;25.00;24.00;20.00
35654;PMS1003;21773;50.010;19.972;2023-01-28T13:46:42;24.00;23.00;19.00
35654;PMS1003;21773;50.010;19.972;2023-01-28T13:49:47;27.20;23.00;20.00
35654;PMS1003;21773;50.010;19.972;2023-01-28T13:52:57;25.25;23.50;19.75
35654;PMS1003;21773;50.010;19.972;2023-01-28T13:56:05;25.60;24.60;21.60
35654;PMS1003;21773;50.010;19.972;2023-01-28T13:59:23;26.00;25.00;20.60
35654;PMS1003;21773;50.010;19.972;2023-01-28T14:02:42;27.00;26.00;21.00
35654;PMS1003;21773;50.010;19.972;2023-01-28T14:06:11;26.80;24.20;20.00
35654;PMS1003;21773;50.010;19.972;2023-01-28T14:09:43;25.00;23.00;20.00
35654;PMS1003;21773;50.010;19.972;2023-01-28T14:13:17;26.25;22.75;19.25
35654;PMS1003;21773;50.010;19.972;2023-01-28T14:16:42;25.00;23.00;19.75
35654;PMS1003;21773;50.010;19.972;2023-01-28T14:19:53;23.00;22.00;18.00
35654;PMS1003;21773;50.010;19.972;2023-01-28T14:23:01;23.00;21.00;18.00
35654;PMS1003;21773;50.010;19.972;2023-01-28T14:26:10;25.00;24.00;20.00
35654;PMS1003;21773;50.010;19.972;2023-01-28T14:29:23;20.00;19.00;17.00
35654;PMS1003;21773;50.010;19.972;2023-01-28T14:32:36;23.80;22.00;19.20
35654;PMS1003;21773;50.010;19.972;2023-01-28T14:35:48;22.40;21.40;19.00
35654;PMS1003;21773;50.010;19.972;2023-01-28T14:38:54;23.80;21.80;18.80
35654;PMS1003;21773;50.010;19.972;2023-01-28T14:41:59;25.40;22.40;19.40
35654;PMS1003;21773;50.010;19.972;2023-01-28T14:45:06;27.60;25.60;21.60
35654;PMS1003;21773;50.010;19.972;2023-01-28T14:48:22;22.00;22.00;18.75
35654;PMS1003;21773;50.010;19.972;2023-01-28T14:51:35;22.50;21.50;18.50
35654;PMS1003;21773;50.010;19.972;2023-01-28T14:54:51;25.00;23.00;20.00
35654;PMS1003;21773;50.010;19.972;2023-01-28T14:58:03;28.00;25.00;22.00
35654;PMS1003;21773;50.010;19.972;2023-01-28T15:01:20;28.60;25.40;22.00
35654;PMS1003;21773;50.010;19.972;2023-01-28T15:04:26;24.50;23.00;19.25
35654;PMS1003;21773;50.010;19.972;2023-01-28T15:07:31;25.25;22.00;18.00
35654;PMS1003;21773;50.010;19.972;2023-01-28T15:10:36;27.60;25.00;20.20
35654;PMS1003;21773;50.010;19.972;2023-01-28T15:13:41;27.40;24.40;20.40
35654;PMS1003;21773;50.010;19.972;2023-01-28T15:16:47;23.00;21.00;18.00
35654;PMS1003;21773;50.010;19.972;2023-01-28T15:19:51;26.50;23.00;19.75
35654;PMS1003;21773;50.010;19.972;2023-01-28T15:22:59;28.40;28.40;22.40
35654;PMS1003;21773;50.010;19.972;2023-01-28T15:26:06;33.00;29.40;22.20
35654;PMS1003;21773;50.010;19.972;2023-01-28T15:29:25;29.20;27.00;21.00
35654;PMS1003;21773;50.010;19.972;2023-01-28T15:32:32;33.25;28.50;22.00
35654;PMS1003;21773;50.010;19.972;2023-01-28T15:35:36;32.75;29.50;22.75
35654;PMS1003;21773;50.010;19.972;2023-01-28T15:38:39;33.60;30.00;23.00
35654;PMS1003;21773;50.010;19.972;2023-01-28T15:41:44;38.00;32.00;24.00
35654;PMS1003;21773;50.010;19.972;2023-01-28T15:44:54;36.80;31.80;23.80
35654;PMS1003;21773;50.010;19.972;2023-01-28T15:48:03;37.40;32.00;24.00
35654;PMS1003;21773;50.010;19.972;2023-01-28T15:51:15;37.50;30.50;23.00
35654;PMS1003;21773;50.010;19.972;2023-01-28T15:54:21;34.00;32.25;24.25
35654;PMS1003;21773;50.010;19.972;2023-01-28T15:57:28;35.60;30.00;22.60
35654;PMS1003;21773;50.010;19.972;2023-01-28T16:00:33;38.00;32.00;25.50
35654;PMS1003;21773;50.010;19.972;2023-01-28T16:03:37;37.40;30.00;23.00
35654;PMS1003;21773;50.010;19.972;2023-01-28T16:06:41;41.50;33.00;24.50
35654;PMS1003;21773;50.010;19.972;2023-01-28T16:09:49;41.00;34.20;26.00
35654;PMS1003;21773;50.010;19.972;2023-01-28T16:12:57;42.80;33.80;26.20
35654;PMS1003;21773;50.010;19.972;2023-01-28T16:16:08;41.20;34.20;26.20
35654;PMS1003;21773;50.010;19.972;2023-01-28T16:19:14;38.00;33.00;25.00
35654;PMS1003;21773;50.010;19.972;2023-01-28T16:22:30;39.60;33.60;26.60
35654;PMS1003;21773;50.010;19.972;2023-01-28T16:25:36;45.00;36.00;28.00
35654;PMS1003;21773;50.010;19.972;2023-01-28T16:28:41;40.60;32.20;24.40
35654;PMS1003;21773;50.010;19.972;2023-01-28T16:31:44;39.50;33.00;26.00
35654;PMS1003;21773;50.010;19.972;2023-01-28T16:34:48;40.00;33.25;26.00
35654;PMS1003;21773;50.010;19.972;2023-01-28T16:37:51;45.00;35.75;27.75
35654;PMS1003;21773;50.010;19.972;2023-01-28T16:40:55;33.80;29.60;22.20
35654;PMS1003;21773;50.010;19.972;2023-01-28T16:44:01;44.60;34.20;25.60
35654;PMS1003;21773;50.010;19.972;2023-01-28T16:47:06;47.33;38.33;28.33
35654;PMS1003;21773;50.010;19.972;2023-01-28T16:50:10;47.00;37.60;29.00
35654;PMS1003;21773;50.010;19.972;2023-01-28T16:53:19;41.00;32.50;24.00
35654;PMS1003;21773;50.010;19.972;2023-01-28T16:56:24;38.00;33.00;25.00
35654;PMS1003;21773;50.010;19.972;2023-01-28T16:59:47;44.80;36.80;28.00
35654;PMS1003;21773;50.010;19.972;2023-01-28T17:02:50;42.75;35.75;27.00
35654;PMS1003;21773;50.010;19.972;2023-01-28T17:05:55;44.00;35.60;27.60
35654;PMS1003;21773;50.010;19.972;2023-01-28T17:08:59;41.60;34.60;26.00
35654;PMS1003;21773;50.010;19.972;2023-01-28T17:12:02;43.60;34.00;26.00
35654;PMS1003;21773;50.010;19.972;2023-01-28T17:15:08;40.60;33.80;25.00
35654;PMS1003;21773;50.010;19.972;2023-01-28T17:18:12;45.40;36.40;27.60
35654;PMS1003;21773;50.010;19.972;2023-01-28T17:21:15;43.50;35.00;26.25
35654;PMS1003;21773;50.010;19.972;2023-01-28T17:24:19;46.40;36.60;27.80